createdAt,value
2017-09-03T00:00:31.903Z,991.07
2017-09-03T00:01:42.167Z,991.1
2017-09-03T00:02:52.440Z,991.08
2017-09-03T00:04:02.707Z,991.05
2017-09-03T00:05:12.649Z,991.12
2017-09-03T00:06:22.916Z,991.09
2017-09-03T00:07:33.183Z,991.07
2017-09-03T00:08:43.133Z,991.08
2017-09-03T00:09:53.078Z,991.04
2017-09-03T00:11:03.341Z,991.09
2017-09-03T00:12:13.614Z,991.07
2017-09-03T00:13:23.876Z,991.1
2017-09-03T00:14:34.169Z,991.11
2017-09-03T00:15:44.114Z,991.09
2017-09-03T00:16:54.378Z,991.05
2017-09-03T00:18:04.644Z,991.03
2017-09-03T00:19:14.587Z,991.03
2017-09-03T00:20:24.209Z,991.03
2017-09-03T00:21:34.503Z,991.03
2017-09-03T00:22:44.776Z,991.03
2017-09-03T00:23:54.724Z,991.02
2017-09-03T00:25:04.993Z,991
2017-09-03T00:26:14.938Z,990.98
2017-09-03T00:27:24.881Z,991.05
2017-09-03T00:28:34.825Z,991.01
2017-09-03T00:29:45.094Z,991.01
2017-09-03T00:30:55.363Z,991.07
2017-09-03T00:32:05.306Z,991.05
2017-09-03T00:33:14.933Z,991.08
2017-09-03T00:34:25.200Z,991.05
2017-09-03T00:35:35.465Z,991.11
2017-09-03T00:36:45.732Z,991.09
2017-09-03T00:37:55.676Z,991.07
2017-09-03T00:39:05.627Z,991.13
2017-09-03T00:40:15.891Z,991.09
2017-09-03T00:41:26.163Z,991.03
2017-09-03T00:42:35.788Z,991.08
2017-09-03T00:43:46.070Z,991.05
2017-09-03T00:44:56.333Z,991.03
2017-09-03T00:46:06.277Z,991.01
2017-09-03T00:47:16.545Z,991.06
2017-09-03T00:48:26.811Z,991
2017-09-03T00:49:36.760Z,991.07
2017-09-03T00:50:47.029Z,991.03
2017-09-03T00:51:57.298Z,991.02
2017-09-03T00:53:07.564Z,991.03
2017-09-03T00:54:17.509Z,991.03
2017-09-03T00:55:27.459Z,991.04
2017-09-03T00:56:37.726Z,991.07
2017-09-03T00:57:48.003Z,991.08
2017-09-03T00:58:57.945Z,991.09
2017-09-03T01:00:08.218Z,991.09
2017-09-03T01:01:18.484Z,991.07
2017-09-03T01:02:28.105Z,991.08
2017-09-03T01:03:38.371Z,991.07
2017-09-03T01:04:48.636Z,991.03
2017-09-03T01:05:58.907Z,991.13
2017-09-03T01:07:08.852Z,991.11
2017-09-03T01:08:19.125Z,991.1
2017-09-03T01:09:29.070Z,991.14
2017-09-03T01:10:39.338Z,991.16
2017-09-03T01:11:49.602Z,991.14
2017-09-03T01:12:59.880Z,991.14
2017-09-03T01:14:10.153Z,991.17
2017-09-03T01:15:20.426Z,991.18
2017-09-03T01:16:30.691Z,991.16
2017-09-03T01:17:40.639Z,991.13
2017-09-03T01:18:50.586Z,991.13
2017-09-03T01:20:00.530Z,991.09
2017-09-03T01:21:10.473Z,991.11
2017-09-03T01:22:20.415Z,991.1
2017-09-03T01:23:30.366Z,991.07
2017-09-03T01:24:40.628Z,991.06
2017-09-03T01:25:50.892Z,991.03
2017-09-03T01:27:01.155Z,991.01
2017-09-03T01:28:11.428Z,990.99
2017-09-03T01:29:21.692Z,991.01
2017-09-03T01:30:31.314Z,991.03
2017-09-03T01:31:41.581Z,991.05
2017-09-03T01:32:51.850Z,991.02
2017-09-03T01:34:01.794Z,991.1
2017-09-03T01:35:11.757Z,991.03
2017-09-03T01:36:22.024Z,991.05
2017-09-03T01:37:32.293Z,991.04
2017-09-03T01:38:42.257Z,991.03
2017-09-03T01:39:52.215Z,991.02
2017-09-03T01:41:02.159Z,991
2017-09-03T01:42:12.433Z,990.99
2017-09-03T01:43:22.378Z,991
2017-09-03T01:44:32.645Z,991.01
2017-09-03T01:45:42.919Z,991.05
2017-09-03T01:46:53.180Z,991.04
2017-09-03T01:48:03.466Z,991.03
2017-09-03T01:49:13.731Z,991
2017-09-03T01:50:23.997Z,991.02
2017-09-03T01:51:34.261Z,991.01
2017-09-03T01:52:44.830Z,991.03
2017-09-03T01:53:54.778Z,991.05
2017-09-03T01:55:04.723Z,991.05
2017-09-03T01:56:14.994Z,991.03
2017-09-03T01:57:24.938Z,991.01
2017-09-03T01:58:35.205Z,991.02
2017-09-03T01:59:45.470Z,991.02
2017-09-03T02:00:55.738Z,991.06
2017-09-03T02:02:06.012Z,991.05
2017-09-03T02:03:15.959Z,991.03
2017-09-03T02:04:26.373Z,991.01
2017-09-03T02:05:36.318Z,991.04
2017-09-03T02:06:46.268Z,991.04
2017-09-03T02:07:56.532Z,991.02
2017-09-03T02:09:06.802Z,991
2017-09-03T02:10:17.421Z,990.98
2017-09-03T02:11:27.694Z,991.03
2017-09-03T02:12:37.960Z,991
2017-09-03T02:13:47.913Z,991.02
2017-09-03T02:14:58.180Z,990.99
2017-09-03T02:17:22.386Z,990.98
2017-09-03T02:18:32.008Z,990.98
2017-09-03T02:19:42.275Z,990.96
2017-09-03T02:20:52.540Z,990.97
2017-09-03T02:22:02.162Z,991.02
2017-09-03T02:23:12.430Z,990.97
2017-09-03T02:24:22.698Z,991
2017-09-03T02:25:32.971Z,990.98
2017-09-03T02:26:43.237Z,991.01
2017-09-03T02:27:53.500Z,990.99
2017-09-03T02:29:03.444Z,991.02
2017-09-03T02:30:13.712Z,991
2017-09-03T02:31:23.993Z,990.98
2017-09-03T02:32:33.941Z,991
2017-09-03T02:33:44.209Z,990.99
2017-09-03T02:34:54.486Z,990.96
2017-09-03T02:36:04.113Z,990.97
2017-09-03T02:37:14.056Z,990.95
2017-09-03T02:38:24.326Z,991.01
2017-09-03T02:39:34.274Z,990.99
2017-09-03T02:40:44.540Z,991.02
2017-09-03T02:41:54.807Z,990.99
2017-09-03T02:43:04.430Z,990.97
2017-09-03T02:44:14.703Z,991.02
2017-09-03T02:45:24.966Z,990.98
2017-09-03T02:46:35.233Z,990.99
2017-09-03T02:47:45.504Z,991
2017-09-03T02:48:55.772Z,991
2017-09-03T02:50:06.037Z,991
2017-09-03T02:51:15.988Z,990.98
2017-09-03T02:52:26.258Z,991
2017-09-03T02:53:36.534Z,991.03
2017-09-03T02:54:46.805Z,991.03
2017-09-03T02:55:57.072Z,991.02
2017-09-03T02:57:07.017Z,991.04
2017-09-03T02:58:16.961Z,991.03
2017-09-03T02:59:26.585Z,991.08
2017-09-03T03:00:36.528Z,991.08
2017-09-03T03:01:46.150Z,991.11
2017-09-03T03:02:56.422Z,991.11
2017-09-03T03:04:06.687Z,991.12
2017-09-03T03:05:16.631Z,991.13
2017-09-03T03:06:26.904Z,991.16
2017-09-03T03:07:36.848Z,991.13
2017-09-03T03:08:46.792Z,991.14
2017-09-03T03:09:57.056Z,991.14
2017-09-03T03:11:07.321Z,991.15
2017-09-03T03:12:17.267Z,991.15
2017-09-03T03:13:27.536Z,991.11
2017-09-03T03:14:37.480Z,991.1
2017-09-03T03:15:47.744Z,991.11
2017-09-03T03:16:58.009Z,991.11
2017-09-03T03:18:08.279Z,991.11
2017-09-03T03:19:18.550Z,991.14
2017-09-03T03:20:28.811Z,991.14
2017-09-03T03:21:38.755Z,991.13
2017-09-03T03:22:49.019Z,991.12
2017-09-03T03:23:59.291Z,991.17
2017-09-03T03:25:09.237Z,991.19
2017-09-03T03:26:19.182Z,991.19
2017-09-03T03:27:29.451Z,991.19
2017-09-03T03:28:39.393Z,991.19
2017-09-03T03:29:49.339Z,991.18
2017-09-03T03:30:59.603Z,991.17
2017-09-03T03:32:09.551Z,991.21
2017-09-03T03:33:19.497Z,991.17
2017-09-03T03:34:29.120Z,991.19
2017-09-03T03:35:39.062Z,991.19
2017-09-03T03:36:49.014Z,991.2
2017-09-03T03:37:58.956Z,991.19
2017-09-03T03:39:08.578Z,991.19
2017-09-03T03:40:18.842Z,991.18
2017-09-03T03:41:29.108Z,991.14
2017-09-03T03:42:39.372Z,991.16
2017-09-03T03:43:49.640Z,991.15
2017-09-03T03:44:59.906Z,991.14
2017-09-03T03:46:09.851Z,991.16
2017-09-03T03:47:20.117Z,991.13
2017-09-03T03:48:29.096Z,991.19
2017-09-03T03:49:39.367Z,991.19
2017-09-03T03:50:49.631Z,991.2
2017-09-03T03:51:59.938Z,991.25
2017-09-03T03:53:10.203Z,991.24
2017-09-03T03:54:20.470Z,991.23
2017-09-03T03:55:30.424Z,991.27
2017-09-03T03:56:40.370Z,991.22
2017-09-03T03:57:50.315Z,991.22
2017-09-03T03:59:00.579Z,991.25
2017-09-03T04:00:10.522Z,991.21
2017-09-03T04:01:20.477Z,991.19
2017-09-03T04:02:30.745Z,991.19
2017-09-03T04:03:41.012Z,991.17
2017-09-03T04:04:51.276Z,991.15
2017-09-03T04:06:01.549Z,991.15
2017-09-03T04:07:11.814Z,991.12
2017-09-03T04:08:21.757Z,991.12
2017-09-03T04:09:31.379Z,991.06
2017-09-03T04:10:41.657Z,991.11
2017-09-03T04:11:51.923Z,991.1
2017-09-03T04:13:02.223Z,991.08
2017-09-03T04:14:12.489Z,991.07
2017-09-03T04:15:22.754Z,991.05
2017-09-03T04:16:32.713Z,991.06
2017-09-03T04:17:42.977Z,991.07
2017-09-03T04:18:53.244Z,991.04
2017-09-03T04:20:03.189Z,991.01
2017-09-03T04:21:13.140Z,991.05
2017-09-03T04:22:23.083Z,991.08
2017-09-03T04:23:33.030Z,991.09
2017-09-03T04:24:43.309Z,991.13
2017-09-03T04:25:53.581Z,991.11
2017-09-03T04:27:03.529Z,991.13
2017-09-03T04:28:13.803Z,991.15
2017-09-03T04:29:24.072Z,991.12
2017-09-03T04:30:34.345Z,991.15
2017-09-03T04:31:44.292Z,991.15
2017-09-03T04:32:54.235Z,991.16
2017-09-03T04:34:04.502Z,991.19
2017-09-03T04:35:14.776Z,991.18
2017-09-03T04:36:25.041Z,991.17
2017-09-03T04:37:34.985Z,991.18
2017-09-03T04:38:45.253Z,991.17
2017-09-03T04:39:55.199Z,991.15
2017-09-03T04:41:05.144Z,991.11
2017-09-03T04:42:15.417Z,991.14
2017-09-03T04:43:25.684Z,991.12
2017-09-03T04:44:35.627Z,991.1
2017-09-03T04:45:45.892Z,991.14
2017-09-03T04:46:56.166Z,991.1
2017-09-03T04:48:06.450Z,991.1
2017-09-03T04:49:16.716Z,991.1
2017-09-03T04:50:26.986Z,991.07
2017-09-03T04:51:36.668Z,991.09
2017-09-03T04:52:46.616Z,991.1
2017-09-03T04:53:56.569Z,991.1
2017-09-03T04:55:06.511Z,991.1
2017-09-03T04:56:16.779Z,991.11
2017-09-03T04:57:27.044Z,991.14
2017-09-03T04:58:36.670Z,991.16
2017-09-03T04:59:46.935Z,991.12
2017-09-03T05:00:57.206Z,991.13
2017-09-03T05:02:07.480Z,991.15
2017-09-03T05:03:17.774Z,991.18
2017-09-03T05:04:27.731Z,991.16
2017-09-03T05:05:37.682Z,991.16
2017-09-03T05:06:47.945Z,991.17
2017-09-03T05:07:58.210Z,991.19
2017-09-03T05:09:08.154Z,991.18
2017-09-03T05:10:18.424Z,991.16
2017-09-03T05:11:28.372Z,991.19
2017-09-03T05:12:38.638Z,991.17
2017-09-03T05:13:48.902Z,991.17
2017-09-03T05:14:59.174Z,991.16
2017-09-03T05:16:09.441Z,991.18
2017-09-03T05:17:19.708Z,991.16
2017-09-03T05:18:29.333Z,991.17
2017-09-03T05:19:39.602Z,991.16
2017-09-03T05:20:49.877Z,991.19
2017-09-03T05:22:00.143Z,991.15
2017-09-03T05:23:10.440Z,991.15
2017-09-03T05:24:20.711Z,991.2
2017-09-03T05:25:30.976Z,991.18
2017-09-03T05:26:41.243Z,991.18
2017-09-03T05:27:51.512Z,991.18
2017-09-03T05:29:01.777Z,991.2
2017-09-03T05:30:12.043Z,991.19
2017-09-03T05:31:22.312Z,991.2
2017-09-03T05:32:32.258Z,991.2
2017-09-03T05:33:41.882Z,991.2
2017-09-03T05:34:52.155Z,991.2
2017-09-03T05:36:02.423Z,991.21
2017-09-03T05:37:12.692Z,991.19
2017-09-03T05:38:22.982Z,991.19
2017-09-03T05:39:32.598Z,991.2
2017-09-03T05:40:42.262Z,991.2
2017-09-03T05:41:52.526Z,991.18
2017-09-03T05:43:02.471Z,991.17
2017-09-03T05:44:12.739Z,991.2
2017-09-03T05:45:23.008Z,991.16
2017-09-03T05:46:33.284Z,991.16
2017-09-03T05:47:43.557Z,991.19
2017-09-03T05:48:53.500Z,991.17
2017-09-03T05:50:03.772Z,991.17
2017-09-03T05:51:14.075Z,991.22
2017-09-03T05:52:24.018Z,991.2
2017-09-03T05:53:33.965Z,991.24
2017-09-03T05:54:44.233Z,991.23
2017-09-03T05:55:54.500Z,991.28
2017-09-03T05:57:04.125Z,991.28
2017-09-03T05:58:14.077Z,991.29
2017-09-03T05:59:24.347Z,991.24
2017-09-03T06:00:34.298Z,991.31
2017-09-03T06:01:44.565Z,991.31
2017-09-03T06:02:54.829Z,991.33
2017-09-03T06:04:05.093Z,991.33
2017-09-03T06:05:15.368Z,991.34
2017-09-03T06:06:25.634Z,991.35
2017-09-03T06:07:35.581Z,991.36
2017-09-03T06:08:45.851Z,991.36
2017-09-03T06:09:56.117Z,991.34
2017-09-03T06:11:06.100Z,991.29
2017-09-03T06:12:15.731Z,991.28
2017-09-03T06:13:25.676Z,991.29
2017-09-03T06:14:35.945Z,991.3
2017-09-03T06:15:46.207Z,991.33
2017-09-03T06:16:56.479Z,991.33
2017-09-03T06:18:06.750Z,991.38
2017-09-03T06:19:16.405Z,991.35
2017-09-03T06:20:26.348Z,991.34
2017-09-03T06:21:36.647Z,991.37
2017-09-03T06:22:46.935Z,991.39
2017-09-03T06:23:56.882Z,991.35
2017-09-03T06:25:06.844Z,991.37
2017-09-03T06:26:17.110Z,991.36
2017-09-03T06:27:27.058Z,991.41
2017-09-03T06:28:36.684Z,991.39
2017-09-03T06:29:46.951Z,991.39
2017-09-03T06:30:57.217Z,991.37
2017-09-03T06:32:07.509Z,991.39
2017-09-03T06:33:17.784Z,991.38
2017-09-03T06:34:27.736Z,991.41
2017-09-03T06:35:37.682Z,991.37
2017-09-03T06:36:47.305Z,991.43
2017-09-03T06:37:57.570Z,991.36
2017-09-03T06:39:07.860Z,991.41
2017-09-03T06:40:18.130Z,991.38
2017-09-03T06:41:28.075Z,991.39
2017-09-03T06:42:38.019Z,991.45
2017-09-03T06:43:48.287Z,991.47
2017-09-03T06:44:58.553Z,991.46
2017-09-03T06:46:08.823Z,991.43
2017-09-03T06:47:19.088Z,991.41
2017-09-03T06:48:29.358Z,991.45
2017-09-03T06:49:39.623Z,991.47
2017-09-03T06:50:49.902Z,991.44
2017-09-03T06:52:00.174Z,991.39
2017-09-03T06:53:10.119Z,991.41
2017-09-03T06:54:20.388Z,991.39
2017-09-03T06:55:30.013Z,991.37
2017-09-03T06:56:39.956Z,991.43
2017-09-03T06:57:50.225Z,991.44
2017-09-03T06:59:00.530Z,991.44
2017-09-03T07:00:10.797Z,991.44
2017-09-03T07:01:21.068Z,991.48
2017-09-03T07:02:31.014Z,991.49
2017-09-03T07:03:40.962Z,991.46
2017-09-03T07:04:51.229Z,991.49
2017-09-03T07:06:01.496Z,991.48
2017-09-03T07:07:11.774Z,991.48
2017-09-03T07:08:22.047Z,991.46
2017-09-03T07:09:31.993Z,991.46
2017-09-03T07:10:41.939Z,991.46
2017-09-03T07:11:52.209Z,991.45
2017-09-03T07:13:01.839Z,991.5
2017-09-03T07:14:12.121Z,991.45
2017-09-03T07:15:22.386Z,991.46
2017-09-03T07:16:32.655Z,991.46
2017-09-03T07:17:42.600Z,991.39
2017-09-03T07:18:52.870Z,991.4
2017-09-03T07:20:03.142Z,991.38
2017-09-03T07:21:13.094Z,991.36
2017-09-03T07:22:23.372Z,991.39
2017-09-03T07:23:33.319Z,991.39
2017-09-03T07:24:43.589Z,991.41
2017-09-03T07:25:53.858Z,991.34
2017-09-03T07:27:04.135Z,991.39
2017-09-03T07:28:14.405Z,991.44
2017-09-03T07:29:24.671Z,991.33
2017-09-03T07:30:34.618Z,991.38
2017-09-03T07:31:44.890Z,991.35
2017-09-03T07:32:54.837Z,991.35
2017-09-03T07:34:05.113Z,991.35
2017-09-03T07:35:15.381Z,991.35
2017-09-03T07:36:25.327Z,991.39
2017-09-03T07:37:35.271Z,991.36
2017-09-03T07:38:44.896Z,991.39
2017-09-03T07:39:54.843Z,991.41
2017-09-03T07:41:05.117Z,991.41
2017-09-03T07:42:15.067Z,991.38
2017-09-03T07:43:25.334Z,991.41
2017-09-03T07:44:35.281Z,991.44
2017-09-03T07:45:45.553Z,991.36
2017-09-03T07:46:55.177Z,991.37
2017-09-03T07:48:05.124Z,991.38
2017-09-03T07:49:15.080Z,991.41
2017-09-03T07:50:25.030Z,991.39
2017-09-03T07:51:35.329Z,991.43
2017-09-03T07:52:45.598Z,991.41
2017-09-03T07:53:55.544Z,991.42
2017-09-03T07:55:05.172Z,991.4
2017-09-03T07:56:15.442Z,991.38
2017-09-03T07:57:25.712Z,991.39
2017-09-03T07:58:35.980Z,991.41
2017-09-03T07:59:45.925Z,991.37
2017-09-03T08:00:55.551Z,991.42
2017-09-03T08:02:05.178Z,991.42
2017-09-03T08:03:15.447Z,991.41
2017-09-03T08:04:25.396Z,991.45
2017-09-03T08:05:35.025Z,991.41
2017-09-03T08:06:45.294Z,991.44
2017-09-03T08:07:55.245Z,991.45
2017-09-03T08:09:05.515Z,991.46
2017-09-03T08:10:15.791Z,991.44
2017-09-03T08:11:26.063Z,991.4
2017-09-03T08:12:35.691Z,991.42
2017-09-03T08:13:45.960Z,991.4
2017-09-03T08:14:56.227Z,991.39
2017-09-03T08:16:06.498Z,991.42
2017-09-03T08:17:16.445Z,991.35
2017-09-03T08:18:26.393Z,991.36
2017-09-03T08:19:36.660Z,991.34
2017-09-03T08:20:46.615Z,991.36
2017-09-03T08:21:56.919Z,991.38
2017-09-03T08:23:06.545Z,991.34
2017-09-03T08:24:16.500Z,991.32
2017-09-03T08:25:26.130Z,991.36
2017-09-03T08:26:36.087Z,991.35
2017-09-03T08:27:45.714Z,991.35
2017-09-03T08:28:55.984Z,991.34
2017-09-03T08:30:06.261Z,991.39
2017-09-03T08:31:15.886Z,991.37
2017-09-03T08:32:26.159Z,991.39
2017-09-03T08:33:36.435Z,991.41
2017-09-03T08:34:46.393Z,991.35
2017-09-03T08:35:56.667Z,991.34
2017-09-03T08:37:06.295Z,991.3
2017-09-03T08:38:16.252Z,991.33
2017-09-03T08:39:26.537Z,991.39
2017-09-03T08:40:36.812Z,991.32
2017-09-03T08:41:47.094Z,991.33
2017-09-03T08:42:57.376Z,991.34
2017-09-03T08:44:07.324Z,991.31
2017-09-03T08:45:16.985Z,991.3
2017-09-03T08:46:27.265Z,991.31
2017-09-03T08:47:37.534Z,991.29
2017-09-03T08:48:47.828Z,991.28
2017-09-03T08:49:57.776Z,991.3
2017-09-03T08:51:08.050Z,991.26
2017-09-03T08:52:18.324Z,991.34
2017-09-03T08:53:28.594Z,991.32
2017-09-03T08:54:38.551Z,991.29
2017-09-03T08:55:48.184Z,991.29
2017-09-03T08:56:57.814Z,991.27
2017-09-03T08:58:07.775Z,991.24
2017-09-03T08:59:17.724Z,991.3
2017-09-03T09:00:27.993Z,991.25
2017-09-03T09:01:37.620Z,991.26
2017-09-03T09:02:47.568Z,991.28
2017-09-03T09:03:57.840Z,991.26
2017-09-03T09:05:08.115Z,991.2
2017-09-03T09:06:18.387Z,991.25
2017-09-03T09:07:28.663Z,991.21
2017-09-03T09:08:38.614Z,991.21
2017-09-03T09:09:48.891Z,991.21
2017-09-03T09:10:59.159Z,991.21
2017-09-03T09:12:09.436Z,991.27
2017-09-03T09:13:19.386Z,991.19
2017-09-03T09:14:29.340Z,991.21
2017-09-03T09:15:39.293Z,991.15
2017-09-03T09:16:49.563Z,991.19
2017-09-03T09:17:59.835Z,991.17
2017-09-03T09:19:10.120Z,991.14
2017-09-03T09:20:20.071Z,991.16
2017-09-03T09:21:30.349Z,991.19
2017-09-03T09:22:40.621Z,991.15
2017-09-03T09:23:50.904Z,991.17
2017-09-03T09:25:00.860Z,991.11
2017-09-03T09:26:11.137Z,991.12
2017-09-03T09:27:21.420Z,991.12
2017-09-03T09:28:30.726Z,991.09
2017-09-03T09:29:40.678Z,991.14
2017-09-03T09:30:50.629Z,991.15
2017-09-03T09:32:00.582Z,991.13
2017-09-03T09:33:10.532Z,991.13
2017-09-03T09:34:20.808Z,991.11
2017-09-03T09:35:30.765Z,991.19
2017-09-03T09:36:40.713Z,991.13
2017-09-03T09:37:50.670Z,991.16
2017-09-03T09:39:00.626Z,991.11
2017-09-03T09:40:10.898Z,991.1
2017-09-03T09:41:21.173Z,991.14
2017-09-03T09:42:31.129Z,991.08
2017-09-03T09:43:40.763Z,991.11
2017-09-03T09:44:50.729Z,991.05
2017-09-03T09:46:01.002Z,991.05
2017-09-03T09:47:10.635Z,991.01
2017-09-03T09:48:20.906Z,990.95
2017-09-03T09:49:31.188Z,990.9
2017-09-03T09:50:41.465Z,990.89
2017-09-03T09:51:51.737Z,990.88
2017-09-03T09:53:01.695Z,990.85
2017-09-03T09:54:11.658Z,990.87
2017-09-03T09:55:21.929Z,990.8
2017-09-03T09:56:31.883Z,990.8
2017-09-03T09:57:41.834Z,990.8
2017-09-03T09:58:51.791Z,990.79
2017-09-03T10:00:02.071Z,990.79
2017-09-03T10:01:12.347Z,990.79
2017-09-03T10:02:22.625Z,990.77
2017-09-03T10:03:32.577Z,990.75
2017-09-03T10:04:42.850Z,990.77
2017-09-03T10:05:52.801Z,990.78
2017-09-03T10:07:03.072Z,990.75
2017-09-03T10:08:13.022Z,990.78
2017-09-03T10:09:23.296Z,990.79
2017-09-03T10:10:33.248Z,990.84
2017-09-03T10:11:43.199Z,990.85
2017-09-03T10:12:53.151Z,990.84
2017-09-03T10:14:03.428Z,990.89
2017-09-03T10:15:13.059Z,990.92
2017-09-03T10:16:23.009Z,990.89
2017-09-03T10:17:33.295Z,990.87
2017-09-03T10:18:43.253Z,990.87
2017-09-03T10:19:53.210Z,990.87
2017-09-03T10:21:03.162Z,990.86
2017-09-03T10:22:13.437Z,990.84
2017-09-03T10:23:23.393Z,990.86
2017-09-03T10:24:33.360Z,990.87
2017-09-03T10:25:43.650Z,990.82
2017-09-03T10:26:53.603Z,990.83
2017-09-03T10:28:03.554Z,990.86
2017-09-03T10:29:13.513Z,990.81
2017-09-03T10:30:23.808Z,990.77
2017-09-03T10:31:33.766Z,990.79
2017-09-03T10:32:44.043Z,990.81
2017-09-03T10:33:53.692Z,990.81
2017-09-03T10:35:03.972Z,990.8
2017-09-03T10:36:13.608Z,990.78
2017-09-03T10:37:23.883Z,990.83
2017-09-03T10:38:33.837Z,990.88
2017-09-03T10:39:44.111Z,990.78
2017-09-03T10:40:54.077Z,990.8
2017-09-03T10:42:04.031Z,990.81
2017-09-03T10:43:14.311Z,990.8
2017-09-03T10:44:24.590Z,990.81
2017-09-03T10:45:34.540Z,990.8
2017-09-03T10:46:44.505Z,990.84
2017-09-03T10:47:54.706Z,990.77
2017-09-03T10:49:04.989Z,990.81
2017-09-03T10:50:15.274Z,990.77
2017-09-03T10:51:25.584Z,990.8
2017-09-03T10:52:35.857Z,990.73
2017-09-03T10:53:46.137Z,990.74
2017-09-03T10:54:56.094Z,990.74
2017-09-03T10:56:06.381Z,990.72
2017-09-03T10:57:16.658Z,990.72
2017-09-03T10:58:26.940Z,990.76
2017-09-03T10:59:36.894Z,990.78
2017-09-03T11:00:46.524Z,990.76
2017-09-03T11:01:56.801Z,990.79
2017-09-03T11:03:07.085Z,990.8
2017-09-03T11:04:17.359Z,990.79
2017-09-03T11:05:27.633Z,990.78
2017-09-03T11:06:37.265Z,990.74
2017-09-03T11:07:47.553Z,990.73
2017-09-03T11:08:57.509Z,990.7
2017-09-03T11:10:07.789Z,990.72
2017-09-03T11:11:18.065Z,990.76
2017-09-03T11:12:28.037Z,990.75
2017-09-03T11:13:37.989Z,990.79
2017-09-03T11:14:48.264Z,990.79
2017-09-03T11:15:57.589Z,990.83
2017-09-03T11:17:07.544Z,990.89
2017-09-03T11:18:17.827Z,990.82
2017-09-03T11:19:28.105Z,990.87
2017-09-03T11:20:37.747Z,990.89
2017-09-03T11:21:48.026Z,990.88
2017-09-03T11:22:57.339Z,990.82
2017-09-03T11:24:07.296Z,990.83
2017-09-03T11:25:17.250Z,990.85
2017-09-03T11:26:27.238Z,990.79
2017-09-03T11:27:37.212Z,990.74
2017-09-03T11:28:47.172Z,990.78
2017-09-03T11:29:57.452Z,990.78
2017-09-03T11:31:07.735Z,990.76
2017-09-03T11:32:18.029Z,990.79
2017-09-03T11:33:27.681Z,990.78
2017-09-03T11:34:37.642Z,990.71
2017-09-03T11:35:47.924Z,990.71
2017-09-03T11:36:58.207Z,990.68
2017-09-03T11:38:07.846Z,990.69
2017-09-03T11:39:18.132Z,990.62
2017-09-03T11:40:28.427Z,990.68
2017-09-03T11:41:38.389Z,990.63
2017-09-03T11:42:48.353Z,990.63
2017-09-03T11:43:58.315Z,990.57
2017-09-03T11:45:08.600Z,990.61
2017-09-03T11:46:18.560Z,990.48
2017-09-03T11:47:28.523Z,990.41
2017-09-03T11:48:38.806Z,990.45
2017-09-03T11:49:49.096Z,990.47
2017-09-03T11:50:58.736Z,990.57
2017-09-03T11:52:08.697Z,990.71
2017-09-03T11:53:18.981Z,990.65
2017-09-03T11:54:28.955Z,990.67
2017-09-03T11:55:38.594Z,990.58
2017-09-03T11:56:48.557Z,990.61
2017-09-03T11:57:58.847Z,990.5
2017-09-03T11:59:09.133Z,990.5
2017-09-03T12:00:19.423Z,990.62
2017-09-03T12:01:29.393Z,990.58
2017-09-03T12:02:39.678Z,990.56
2017-09-03T12:03:49.965Z,990.64
2017-09-03T12:04:59.944Z,990.68
2017-09-03T12:06:10.237Z,990.65
2017-09-03T12:07:20.544Z,990.64
2017-09-03T12:08:30.507Z,990.65
2017-09-03T12:09:40.795Z,990.61
2017-09-03T12:10:50.758Z,990.6
2017-09-03T12:12:01.066Z,990.57
2017-09-03T12:13:11.029Z,990.54
2017-09-03T12:14:20.672Z,990.5
2017-09-03T12:15:30.642Z,990.51
2017-09-03T12:16:40.605Z,990.51
2017-09-03T12:17:50.569Z,990.5
2017-09-03T12:19:00.876Z,990.44
2017-09-03T12:20:10.198Z,990.42
2017-09-03T12:21:20.485Z,990.38
2017-09-03T12:22:30.775Z,990.38
2017-09-03T12:23:40.741Z,990.4
2017-09-03T12:24:51.052Z,990.43
2017-09-03T12:26:01.017Z,990.47
2017-09-03T12:27:10.981Z,990.47
2017-09-03T12:28:20.627Z,990.44
2017-09-03T12:29:30.591Z,990.42
2017-09-03T12:30:40.881Z,990.45
2017-09-03T12:31:50.846Z,990.37
2017-09-03T12:33:00.811Z,990.42
2017-09-03T12:34:11.099Z,990.41
2017-09-03T12:35:21.402Z,990.41
2017-09-03T12:36:31.366Z,990.39
2017-09-03T12:37:41.660Z,990.34
2017-09-03T12:38:51.952Z,990.35
2017-09-03T12:40:02.245Z,990.35
2017-09-03T12:41:12.210Z,990.28
2017-09-03T12:42:22.499Z,990.25
2017-09-03T12:43:32.465Z,990.27
2017-09-03T12:44:42.435Z,990.25
2017-09-03T12:45:52.404Z,990.3
2017-09-03T12:47:02.698Z,990.22
2017-09-03T12:48:12.661Z,990.25
2017-09-03T12:49:22.946Z,990.23
2017-09-03T12:50:33.239Z,990.23
2017-09-03T12:51:43.528Z,990.23
2017-09-03T12:52:53.495Z,990.24
2017-09-03T12:54:03.789Z,990.21
2017-09-03T12:55:14.081Z,990.17
2017-09-03T12:56:24.371Z,990.17
2017-09-03T12:57:34.335Z,990.16
2017-09-03T12:58:44.303Z,990.11
2017-09-03T12:59:54.594Z,990.06
2017-09-03T13:01:04.887Z,990.01
2017-09-03T13:02:15.185Z,990.02
2017-09-03T13:03:25.150Z,990.02
2017-09-03T13:04:35.114Z,990.03
2017-09-03T13:05:45.080Z,990
2017-09-03T13:06:55.047Z,990.03
2017-09-03T13:08:05.017Z,990.07
2017-09-03T13:09:14.982Z,990.08
2017-09-03T13:10:25.305Z,990.09
2017-09-03T13:11:35.271Z,990.07
2017-09-03T13:12:45.235Z,990.15
2017-09-03T13:13:55.208Z,990.14
2017-09-03T13:15:04.856Z,990.17
2017-09-03T13:16:15.145Z,990.16
2017-09-03T13:17:25.121Z,990.14
2017-09-03T13:18:35.093Z,990.14
2017-09-03T13:19:45.382Z,990.11
2017-09-03T13:20:55.347Z,990.04
2017-09-03T13:22:05.634Z,989.96
2017-09-03T13:23:15.602Z,989.92
2017-09-03T13:24:25.889Z,989.96
2017-09-03T13:25:36.183Z,989.9
2017-09-03T13:26:46.475Z,989.94
2017-09-03T13:27:56.770Z,989.94
2017-09-03T13:29:07.060Z,989.91
2017-09-03T13:30:17.353Z,989.86
2017-09-03T13:31:27.644Z,989.89
2017-09-03T13:32:37.611Z,989.85
2017-09-03T13:33:47.899Z,989.89
2017-09-03T13:34:58.188Z,989.86
2017-09-03T13:36:08.155Z,989.77
2017-09-03T13:37:18.126Z,989.77
2017-09-03T13:38:28.095Z,989.84
2017-09-03T13:39:38.065Z,989.78
2017-09-03T13:40:48.353Z,989.8
2017-09-03T13:41:58.643Z,989.81
2017-09-03T13:43:08.639Z,989.78
2017-09-03T13:44:18.941Z,989.83
2017-09-03T13:45:29.236Z,989.83
2017-09-03T13:46:38.881Z,989.79
2017-09-03T13:47:49.176Z,989.92
2017-09-03T13:48:59.464Z,989.94
2017-09-03T13:50:09.761Z,989.91
2017-09-03T13:51:20.049Z,989.94
2017-09-03T13:52:30.341Z,989.96
2017-09-03T13:53:40.306Z,989.96
2017-09-03T13:54:50.595Z,990.01
2017-09-03T13:56:00.883Z,990.04
2017-09-03T13:57:10.854Z,990.01
2017-09-03T13:58:20.825Z,989.87
2017-09-03T13:59:31.109Z,989.82
2017-09-03T14:00:41.074Z,989.33
2017-09-03T14:01:51.365Z,989.21
2017-09-03T14:03:01.664Z,989.28
2017-09-03T14:04:11.952Z,989.33
2017-09-03T14:05:21.920Z,989.4
2017-09-03T14:06:32.205Z,989.4
2017-09-03T14:07:42.526Z,989.59
2017-09-03T14:08:52.488Z,990.13
2017-09-03T14:10:02.451Z,990.16
2017-09-03T14:11:12.737Z,990.11
2017-09-03T14:12:23.030Z,990.09
2017-09-03T14:13:33.315Z,990.13
2017-09-03T14:14:43.602Z,990.11
2017-09-03T14:15:53.886Z,990.08
2017-09-03T14:17:04.171Z,990.16
2017-09-03T14:18:13.813Z,990.14
2017-09-03T14:19:24.098Z,990.24
2017-09-03T14:20:34.404Z,990.11
2017-09-03T14:21:44.728Z,990.11
2017-09-03T14:22:55.014Z,990.2
2017-09-03T14:24:04.983Z,990.22
2017-09-03T14:25:15.276Z,990.15
2017-09-03T14:26:24.921Z,990.23
2017-09-03T14:27:34.573Z,990.32
2017-09-03T14:28:44.880Z,990.2
2017-09-03T14:29:54.845Z,990.28
2017-09-03T14:31:04.810Z,990.27
2017-09-03T14:32:14.775Z,990.15
2017-09-03T14:33:24.740Z,990.13
2017-09-03T14:34:35.029Z,990.29
2017-09-03T14:35:45.316Z,990.3
2017-09-03T14:36:55.281Z,990.4
2017-09-03T14:38:05.606Z,990.35
2017-09-03T14:39:15.252Z,990.37